Time;durP1;ratioP1;P1;durP2;ratioP2;P2;SDS_P1;SDS_P2;PMS_P1;PMS_P2;Temp;Humidity;BMP_temperature;BMP_pressure;BME280_temperature;BME280_humidity;BME280_pressure;Samples;Min_cycle;Max_cycle;Signal;HPM_P1;HPM_P2
2023/03/19 00:00:12;;;;;;;15.23;6.22;;;;;;;3.88;100.00;95156.34;5051214;28;20092;-74
2023/03/19 00:02:57;;;;;;;13.88;5.75;;;;;;;3.83;100.00;95151.84;5029171;28;20465;-74
2023/03/19 00:05:23;;;;;;;12.32;5.32;;;;;;;3.88;100.00;95145.94;5023696;28;20076;-74
2023/03/19 00:07:48;;;;;;;12.63;6.30;;;;;;;3.83;100.00;95149.25;5031047;28;20069;-74
2023/03/19 00:10:14;;;;;;;11.02;5.45;;;;;;;3.83;100.00;95151.84;5024731;28;20620;-74
2023/03/19 00:12:40;;;;;;;13.35;6.57;;;;;;;3.77;100.00;95150.19;5029388;28;20116;-74
2023/03/19 00:15:07;;;;;;;15.50;6.95;;;;;;;3.74;100.00;95148.84;5017418;28;20042;-74
2023/03/19 00:17:33;;;;;;;12.98;5.95;;;;;;;3.74;100.00;95153.28;5031632;28;20041;-74
2023/03/19 00:19:59;;;;;;;9.55;5.53;;;;;;;3.75;100.00;95147.03;5034517;28;20033;-74
2023/03/19 00:22:24;;;;;;;8.60;4.85;;;;;;;3.70;100.00;95146.97;5022963;28;20038;-74
2023/03/19 00:24:50;;;;;;;11.88;5.63;;;;;;;3.69;100.00;95145.38;5033723;28;20045;-74
2023/03/19 00:27:15;;;;;;;9.68;4.03;;;;;;;3.67;100.00;95157.84;5038080;28;20104;-76
2023/03/19 00:29:41;;;;;;;12.25;4.90;;;;;;;3.61;100.00;95147.31;5035850;28;20045;-74
2023/03/19 00:32:07;;;;;;;11.48;4.50;;;;;;;3.61;100.00;95149.16;5033073;28;20635;-75
2023/03/19 00:34:32;;;;;;;10.32;4.43;;;;;;;3.63;100.00;95160.91;5026317;28;20038;-75
2023/03/19 00:36:58;;;;;;;10.70;4.22;;;;;;;3.57;100.00;95164.44;5033245;28;20432;-75
2023/03/19 00:39:23;;;;;;;12.23;4.07;;;;;;;3.49;100.00;95156.22;5037008;28;20052;-75
2023/03/19 00:41:49;;;;;;;10.90;4.40;;;;;;;3.45;100.00;95153.28;5036574;28;20060;-75
2023/03/19 00:44:18;;;;;;;11.00;4.30;;;;;;;3.50;100.00;95158.56;5035209;28;20716;-76
2023/03/19 00:46:44;;;;;;;9.95;4.60;;;;;;;3.49;100.00;95166.63;5033523;28;20045;-75
2023/03/19 00:49:10;;;;;;;12.18;4.30;;;;;;;3.45;100.00;95161.88;5029122;28;20099;-75
2023/03/19 00:51:35;;;;;;;12.88;4.82;;;;;;;3.40;100.00;95168.81;5027663;28;20038;-75
2023/03/19 00:54:01;;;;;;;10.45;4.35;;;;;;;3.31;100.00;95165.00;5036244;28;20050;-75
2023/03/19 00:56:26;;;;;;;7.65;4.40;;;;;;;3.29;100.00;95168.63;5038098;28;20041;-75
2023/03/19 00:58:52;;;;;;;8.25;3.80;;;;;;;3.26;100.00;95171.69;5035949;28;20497;-75
2023/03/19 01:01:18;;;;;;;12.35;4.80;;;;;;;3.18;100.00;95172.03;5033110;28;20038;-75
2023/03/19 01:03:45;;;;;;;8.70;4.07;;;;;;;3.22;100.00;95173.16;5023159;28;20038;-75
2023/03/19 01:06:11;;;;;;;12.13;4.47;;;;;;;3.23;100.00;95169.53;5035394;28;20460;-75
2023/03/19 01:08:36;;;;;;;11.50;4.07;;;;;;;3.15;100.00;95162.09;5036708;28;20049;-75
2023/03/19 01:11:08;;;;;;;13.90;4.55;;;;;;;3.18;100.00;95166.84;5034284;28;20048;-75
2023/03/19 01:13:33;;;;;;;8.35;4.35;;;;;;;3.07;100.00;95170.25;5029120;28;20046;-75
2023/03/19 01:16:01;;;;;;;15.00;4.78;;;;;;;3.01;100.00;95176.38;5033982;28;20038;-75
2023/03/19 01:18:26;;;;;;;13.05;4.78;;;;;;;2.98;100.00;95171.66;5029611;28;20041;-77
2023/03/19 01:20:52;;;;;;;12.02;4.60;;;;;;;2.86;100.00;95167.25;5028797;28;20523;-75
2023/03/19 01:23:18;;;;;;;9.27;4.47;;;;;;;2.93;100.00;95170.53;5031067;28;20092;-75
2023/03/19 01:25:43;;;;;;;10.93;5.07;;;;;;;2.97;100.00;95170.06;5018927;28;20048;-75
2023/03/19 01:28:09;;;;;;;12.32;4.72;;;;;;;2.82;100.00;95170.53;5035684;28;20091;-75
2023/03/19 01:30:35;;;;;;;14.02;5.00;;;;;;;2.75;100.00;95168.06;5034203;28;20045;-75
2023/03/19 01:33:00;;;;;;;11.05;4.80;;;;;;;2.80;100.00;95173.34;5028617;28;20037;-75
2023/03/19 01:35:26;;;;;;;11.65;4.25;;;;;;;2.71;100.00;95183.28;5029066;28;20116;-75
2023/03/19 01:37:51;;;;;;;10.68;4.63;;;;;;;2.74;100.00;95182.06;5032231;28;20532;-75
2023/03/19 01:40:17;;;;;;;11.65;4.43;;;;;;;2.79;100.00;95174.38;5030192;28;20049;-75
2023/03/19 01:42:54;;;;;;;8.70;4.72;;;;;;;2.80;100.00;95181.13;5025126;28;20841;-76
2023/03/19 01:45:35;;;;;;;8.48;4.35;;;;;;;2.70;100.00;95171.34;5029875;28;20091;-75
2023/03/19 01:48:03;;;;;;;9.77;4.38;;;;;;;2.68;100.00;95173.34;5032234;28;20042;-75
2023/03/19 01:50:41;;;;;;;9.55;4.05;;;;;;;2.60;100.00;95173.69;5027206;28;20048;-75
2023/03/19 01:53:10;;;;;;;8.18;4.45;;;;;;;2.54;100.00;95175.41;5021007;28;20455;-75
2023/03/19 01:55:36;;;;;;;10.50;4.78;;;;;;;2.51;100.00;95181.03;5026321;28;20489;-75
2023/03/19 01:58:01;;;;;;;17.20;5.78;;;;;;;2.66;100.00;95174.59;5031720;28;20041;-75
2023/03/19 02:00:28;;;;;;;10.75;4.93;;;;;;;2.74;100.00;95174.25;5027735;28;20493;-75
2023/03/19 02:02:59;;;;;;;10.90;4.30;;;;;;;2.56;100.00;95173.38;5028278;28;20144;-76
2023/03/19 02:05:25;;;;;;;10.65;4.65;;;;;;;2.52;100.00;95180.03;5028931;28;20048;-75
2023/03/19 02:07:53;;;;;;;8.32;4.40;;;;;;;2.45;100.00;95174.16;5031355;28;20548;-75
2023/03/19 02:10:21;;;;;;;8.27;4.25;;;;;;;2.43;100.00;95179.59;5027948;28;20041;-75
2023/03/19 02:12:47;;;;;;;13.18;5.00;;;;;;;2.46;100.00;95187.94;5028085;28;20045;-75
2023/03/19 02:15:13;;;;;;;13.15;4.72;;;;;;;2.37;100.00;95182.28;5026835;28;20037;-75
2023/03/19 02:17:40;;;;;;;10.00;4.40;;;;;;;2.41;100.00;95183.41;5029525;28;20495;-74
2023/03/19 02:20:11;;;;;;;10.77;4.72;;;;;;;2.48;100.00;95178.13;5019795;28;20068;-74
2023/03/19 02:22:42;;;;;;;9.18;4.65;;;;;;;2.45;100.00;95171.56;5022780;28;20036;-74
2023/03/19 02:25:29;;;;;;;7.25;4.43;;;;;;;2.34;100.00;95161.97;5028192;28;20041;-74
2023/03/19 02:27:56;;;;;;;13.18;4.80;;;;;;;2.39;100.00;95169.88;5027460;28;20068;-75
2023/03/19 02:30:31;;;;;;;8.68;4.20;;;;;;;2.32;100.00;95169.19;5029990;28;20045;-74
2023/03/19 02:32:56;;;;;;;;;;;;;;;2.27;100.00;95167.28;5024176;28;20045;-75
2023/03/19 02:35:22;;;;;;;13.05;4.82;;;;;;;2.24;100.00;95173.72;5017927;28;19921;-75
2023/03/19 02:37:47;;;;;;;10.93;4.88;;;;;;;2.22;100.00;95165.34;5030586;28;20042;-75
2023/03/19 02:40:25;;;;;;;10.15;5.07;;;;;;;2.32;100.00;95177.00;5028073;28;20068;-75
2023/03/19 02:42:50;;;;;;;10.85;4.78;;;;;;;2.28;100.00;95174.03;5021186;28;20045;-75
2023/03/19 02:45:17;;;;;;;14.00;4.60;;;;;;;2.35;100.00;95179.13;5027806;28;20485;-75
2023/03/19 02:47:42;;;;;;;12.77;4.30;;;;;;;2.23;100.00;95192.91;5026508;28;20046;-75
2023/03/19 02:50:09;;;;;;;11.60;4.22;;;;;;;2.20;100.00;95188.16;5024883;28;20046;-75
2023/03/19 02:52:35;;;;;;;11.82;4.45;;;;;;;2.20;100.00;95188.16;5026441;28;20083;-74
2023/03/19 02:55:01;;;;;;;7.63;4.43;;;;;;;2.25;100.00;95196.03;5026344;28;20103;-74
2023/03/19 02:57:27;;;;;;;8.63;4.40;;;;;;;2.16;100.00;95192.22;5025274;28;20049;-75
2023/03/19 02:59:52;;;;;;;9.82;4.72;;;;;;;2.15;100.00;95195.81;5026241;28;20073;-74
2023/03/19 03:02:18;;;;;;;12.95;4.60;;;;;;;2.20;100.00;95192.56;5027280;28;20460;-75
2023/03/19 03:04:44;;;;;;;10.00;4.22;;;;;;;2.18;100.00;95195.34;5024862;28;20040;-74
2023/03/19 03:07:10;;;;;;;9.93;4.10;;;;;;;2.10;100.00;95203.50;5029854;28;20049;-74
2023/03/19 03:09:36;;;;;;;11.48;4.35;;;;;;;2.08;100.00;95206.31;5026512;28;20402;-74
2023/03/19 03:12:02;;;;;;;11.38;4.35;;;;;;;2.02;100.00;95201.22;5024718;28;20050;-74
2023/03/19 03:14:27;;;;;;;10.02;4.22;;;;;;;2.07;100.00;95214.31;5019855;28;20048;-74
2023/03/19 03:16:53;;;;;;;10.23;4.30;;;;;;;2.12;100.00;95216.25;5025726;28;20103;-74
2023/03/19 03:19:19;;;;;;;9.93;4.40;;;;;;;2.14;100.00;95209.81;5029651;28;20124;-75
2023/03/19 03:21:44;;;;;;;14.18;5.00;;;;;;;2.05;100.00;95216.34;5029122;28;20038;-75
2023/03/19 03:24:10;;;;;;;10.15;4.60;;;;;;;2.00;100.00;95211.81;5028172;28;20045;-75
2023/03/19 03:26:37;;;;;;;8.35;4.20;;;;;;;2.01;100.00;95210.81;5029494;28;20045;-74
2023/03/19 03:29:07;;;;;;;12.60;4.93;;;;;;;2.04;100.00;95210.38;5029141;28;20045;-75
2023/03/19 03:31:33;;;;;;;9.15;4.43;;;;;;;2.08;100.00;95200.31;5026583;28;20513;-75
2023/03/19 03:34:00;;;;;;;7.55;4.05;;;;;;;2.05;100.00;95205.97;5023973;28;20489;-75
2023/03/19 03:36:26;;;;;;;10.07;3.95;;;;;;;1.98;100.00;95205.25;5027560;28;20116;-75
2023/03/19 03:38:52;;;;;;;11.80;4.15;;;;;;;1.97;100.00;95208.88;5028795;28;20051;-75
2023/03/19 03:41:18;;;;;;;13.68;5.05;;;;;;;2.04;100.00;95217.34;5029063;28;20564;-75
2023/03/19 03:43:44;;;;;;;10.32;4.75;;;;;;;1.97;100.00;95221.84;5017370;28;20112;-74
2023/03/19 03:46:10;;;;;;;12.60;4.90;;;;;;;1.93;100.00;95223.31;5029839;28;20448;-75
2023/03/19 03:48:35;;;;;;;10.23;4.95;;;;;;;1.93;100.00;95223.31;5027211;28;20037;-75
2023/03/19 03:51:02;;;;;;;12.05;5.30;;;;;;;1.95;100.00;95221.28;5027077;28;20041;-74
2023/03/19 03:53:27;;;;;;;14.60;4.72;;;;;;;1.97;100.00;95227.84;5023449;28;20093;-75
2023/03/19 03:55:53;;;;;;;10.07;4.72;;;;;;;1.96;100.00;95228.06;5028548;28;20045;-75
2023/03/19 03:58:19;;;;;;;14.38;5.05;;;;;;;2.00;100.00;95234.41;5027346;28;20045;-75
2023/03/19 04:00:45;;;;;;;9.80;4.25;;;;;;;2.07;100.00;95224.72;5022541;28;20701;-74
2023/03/19 04:03:12;;;;;;;8.27;4.55;;;;;;;2.10;100.00;95229.44;5027855;28;20565;-75
2023/03/19 04:05:37;;;;;;;11.57;4.82;;;;;;;2.05;100.00;95232.72;5026490;28;20051;-75
2023/03/19 04:08:05;;;;;;;8.68;4.60;;;;;;;2.04;100.00;95230.31;5027988;28;20073;-75
2023/03/19 04:10:32;;;;;;;8.23;4.65;;;;;;;2.13;100.00;95231.59;5028864;28;20096;-74
2023/03/19 04:12:58;;;;;;;10.35;4.72;;;;;;;2.11;100.00;95230.22;5025701;28;20088;-74
2023/03/19 04:15:23;;;;;;;10.32;4.80;;;;;;;2.15;100.00;95232.16;5029702;28;20053;-74
2023/03/19 04:17:49;;;;;;;11.48;4.53;;;;;;;2.17;100.00;95235.34;5025249;28;20045;-74
2023/03/19 04:20:18;;;;;;;8.35;4.30;;;;;;;2.17;100.00;95235.34;5028348;28;20046;-74
2023/03/19 04:22:44;;;;;;;8.18;4.28;;;;;;;2.16;100.00;95233.75;5022977;28;20061;-74
2023/03/19 04:25:10;;;;;;;10.82;4.35;;;;;;;2.17;100.00;95240.53;5028341;28;20038;-75
2023/03/19 04:27:36;;;;;;;8.65;4.57;;;;;;;2.30;100.00;95247.31;5028688;28;20050;-74
2023/03/19 04:30:02;;;;;;;10.75;4.70;;;;;;;2.29;100.00;95237.16;5028562;28;20061;-75
2023/03/19 04:32:28;;;;;;;9.18;3.95;;;;;;;2.33;100.00;95238.28;5025815;28;20505;-74
2023/03/19 04:34:53;;;;;;;8.80;4.22;;;;;;;2.34;100.00;95250.25;5026085;28;20182;-74
2023/03/19 04:37:19;;;;;;;11.05;4.43;;;;;;;2.35;100.00;95241.47;5029330;28;20060;-75
2023/03/19 04:39:44;;;;;;;8.48;4.10;;;;;;;2.44;100.00;95242.69;5027483;28;20099;-75
2023/03/19 04:42:10;;;;;;;9.57;4.15;;;;;;;2.44;100.00;95250.50;5028878;28;20648;-75
2023/03/19 04:44:36;;;;;;;7.45;3.78;;;;;;;2.45;100.00;95246.09;5023683;28;20104;-74
2023/03/19 04:47:03;;;;;;;9.23;4.00;;;;;;;2.46;100.00;95248.47;5028023;28;20041;-74
2023/03/19 04:49:29;;;;;;;8.35;4.10;;;;;;;2.50;100.00;95244.41;5024931;28;20072;-74
2023/03/19 04:51:56;;;;;;;7.75;4.15;;;;;;;2.50;100.00;95249.63;5027226;28;20033;-75
2023/03/19 04:54:23;;;;;;;9.35;4.70;;;;;;;2.54;100.00;95253.34;5027081;28;20045;-74
2023/03/19 04:56:49;;;;;;;10.98;4.50;;;;;;;2.53;100.00;95254.34;5029131;28;20516;-74
2023/03/19 04:59:15;;;;;;;7.32;3.75;;;;;;;2.53;100.00;95256.97;5023435;28;20048;-76
2023/03/19 05:01:40;;;;;;;8.75;3.92;;;;;;;2.51;100.00;95245.97;5018443;28;20048;-75
2023/03/19 05:04:07;;;;;;;8.40;4.00;;;;;;;2.57;100.00;95255.50;5020103;28;20088;-75
2023/03/19 05:06:33;;;;;;;9.40;4.20;;;;;;;2.60;100.00;95255.03;5031523;28;20068;-75
2023/03/19 05:08:58;;;;;;;6.05;3.70;;;;;;;2.63;100.00;95253.00;5030699;28;20390;-75
2023/03/19 05:11:24;;;;;;;9.48;4.07;;;;;;;2.62;100.00;95256.63;5027482;28;20041;-75
2023/03/19 05:13:50;;;;;;;7.05;4.13;;;;;;;2.65;100.00;95256.19;5017422;28;20041;-75
2023/03/19 05:16:15;;;;;;;11.50;4.20;;;;;;;2.72;100.00;95272.44;5031858;28;20428;-76
2023/03/19 05:18:42;;;;;;;12.43;4.20;;;;;;;2.81;100.00;95281.47;5031608;28;20099;-74
2023/03/19 05:21:12;;;;;;;8.25;4.28;;;;;;;2.81;100.00;95286.69;5029574;28;20042;-74
2023/03/19 05:23:38;;;;;;;6.75;4.15;;;;;;;2.87;100.00;95290.97;5026040;28;20406;-74
2023/03/19 05:26:05;;;;;;;8.23;3.95;;;;;;;2.95;100.00;95287.25;5032003;28;20045;-74
2023/03/19 05:28:31;;;;;;;10.00;4.15;;;;;;;2.98;100.00;95291.22;5031472;28;20046;-74
2023/03/19 05:30:57;;;;;;;9.10;4.03;;;;;;;3.04;100.00;95292.91;5028896;28;20041;-74
2023/03/19 05:33:22;;;;;;;9.52;4.00;;;;;;;3.12;100.00;95295.16;5022235;28;20795;-74
2023/03/19 05:35:48;;;;;;;11.70;4.28;;;;;;;3.14;100.00;95295.72;5028598;28;20046;-74
2023/03/19 05:38:14;;;;;;;8.27;4.05;;;;;;;3.17;100.00;95297.88;5027434;28;20041;-76
2023/03/19 05:40:43;;;;;;;11.50;4.72;;;;;;;3.28;100.00;95306.69;5031205;28;20046;-74
2023/03/19 05:43:09;;;;;;;7.95;3.95;;;;;;;3.37;100.00;95309.72;5019621;28;20836;-75
2023/03/19 05:45:36;;;;;;;9.32;4.35;;;;;;;3.40;100.00;95314.47;5031523;28;20041;-76
2023/03/19 05:48:02;;;;;;;9.35;4.85;;;;;;;3.46;100.00;95318.75;5026152;28;20133;-76
2023/03/19 05:50:28;;;;;;;15.32;6.38;;;;;;;3.76;100.00;95318.56;5018468;28;20049;-75
2023/03/19 05:52:54;;;;;;;11.05;4.82;;;;;;;3.86;100.00;95320.59;5023046;28;20521;-75
2023/03/19 05:55:19;;;;;;;16.30;5.28;;;;;;;3.96;100.00;95326.00;5028431;28;20038;-76
2023/03/19 05:57:45;;;;;;;10.93;5.25;;;;;;;4.18;100.00;95324.56;5030494;28;20045;-75
2023/03/19 06:00:12;;;;;;;11.10;5.75;;;;;;;4.65;100.00;95330.31;5027822;28;20117;-75
2023/03/19 06:02:37;;;;;;;12.45;5.70;;;;;;;5.17;100.00;95320.66;5028822;28;20041;-75
2023/03/19 06:05:04;;;;;;;14.60;5.65;;;;;;;5.46;100.00;95328.38;5026980;28;20045;-75
2023/03/19 06:07:29;;;;;;;12.25;6.25;;;;;;;5.70;100.00;95332.38;5030116;28;20128;-77
2023/03/19 06:09:55;;;;;;;16.92;6.18;;;;;;;5.95;100.00;95335.50;5029651;28;20046;-77
2023/03/19 06:12:21;;;;;;;14.23;6.63;;;;;;;6.06;100.00;95338.03;5026798;28;20426;-76
2023/03/19 06:14:47;;;;;;;14.25;6.57;;;;;;;6.09;100.00;95349.00;5028315;28;20037;-76
2023/03/19 06:17:12;;;;;;;13.43;6.40;;;;;;;6.53;100.00;95346.34;5030181;28;20098;-76
2023/03/19 06:19:38;;;;;;;13.43;7.07;;;;;;;6.61;100.00;95351.13;5022109;28;20046;-76
2023/03/19 06:22:03;;;;;;;15.45;7.82;;;;;;;6.53;100.00;95354.97;5024770;28;20046;-76
2023/03/19 06:24:29;;;;;;;13.18;7.38;;;;;;;6.93;100.00;95360.81;5027234;28;20477;-74
2023/03/19 06:26:55;;;;;;;15.77;7.95;;;;;;;7.06;100.00;95359.59;5028022;28;20052;-74
2023/03/19 06:29:21;;;;;;;18.48;7.65;;;;;;;6.98;100.00;95368.69;5022516;28;20037;-76
2023/03/19 06:31:46;;;;;;;15.93;7.60;;;;;;;7.04;100.00;95367.69;5027651;28;20699;-76
2023/03/19 06:34:12;;;;;;;15.50;8.00;;;;;;;7.09;100.00;95380.03;5027179;28;20049;-76
2023/03/19 06:36:38;;;;;;;15.20;8.40;;;;;;;7.08;100.00;95374.03;5031055;28;20045;-76
2023/03/19 06:39:04;;;;;;;18.50;8.20;;;;;;;7.20;100.00;95375.69;5030047;28;20076;-77
2023/03/19 06:41:30;;;;;;;14.90;7.72;;;;;;;7.26;100.00;95374.66;5020996;28;20551;-77
2023/03/19 06:43:55;;;;;;;16.90;8.57;;;;;;;7.33;100.00;95390.94;5025077;28;20056;-77
2023/03/19 06:46:21;;;;;;;13.57;7.47;;;;;;;7.35;100.00;95394.09;5032117;28;20728;-76
2023/03/19 06:48:47;;;;;;;17.42;8.38;;;;;;;7.35;100.00;95394.09;5025154;28;20037;-76
2023/03/19 06:51:12;;;;;;;17.02;8.25;;;;;;;7.48;100.00;95389.47;5027683;28;20091;-75
2023/03/19 06:53:38;;;;;;;14.52;7.93;;;;;;;7.57;100.00;95396.59;5025780;28;20472;-76
2023/03/19 06:56:04;;;;;;;16.88;8.35;;;;;;;7.53;100.00;95394.72;5030465;28;20052;-75
2023/03/19 06:58:30;;;;;;;16.40;8.75;;;;;;;7.65;100.00;95397.19;5028063;28;20644;-75
2023/03/19 07:00:56;;;;;;;16.30;8.10;;;;;;;7.78;100.00;95404.56;5023770;28;20073;-76
2023/03/19 07:03:22;;;;;;;17.85;8.50;;;;;;;7.66;100.00;95410.00;5022989;28;20128;-76
2023/03/19 07:05:49;;;;;;;17.25;8.57;;;;;;;7.63;100.00;95416.53;5030204;28;20566;-77
2023/03/19 07:08:16;;;;;;;18.90;8.65;;;;;;;7.69;100.00;95427.06;5028840;28;20398;-78
2023/03/19 07:10:41;;;;;;;18.40;8.52;;;;;;;7.60;100.00;95427.53;5027148;28;20052;-77
2023/03/19 07:13:07;;;;;;;15.50;8.93;;;;;;;7.62;100.00;95422.03;5029747;28;20038;-79
2023/03/19 07:15:33;;;;;;;19.67;8.45;;;;;;;7.62;100.00;95440.38;5028746;28;20045;-82
2023/03/19 07:17:59;;;;;;;16.73;8.75;;;;;;;7.66;100.00;95445.88;5029148;28;20120;-78
2023/03/19 07:20:24;;;;;;;18.65;9.27;;;;;;;7.69;100.00;95450.63;5026925;28;20053;-78
2023/03/19 07:22:50;;;;;;;19.08;8.10;;;;;;;7.76;100.00;95451.97;5026644;28;20108;-78
2023/03/19 07:25:16;;;;;;;17.38;8.32;;;;;;;7.76;100.00;95451.97;5026931;28;20052;-78
2023/03/19 07:27:43;;;;;;;18.30;8.88;;;;;;;7.83;100.00;95456.22;5029799;28;20144;-77
2023/03/19 07:30:10;;;;;;;16.15;8.30;;;;;;;7.86;100.00;95460.94;5029297;28;20049;-78
2023/03/19 07:32:37;;;;;;;16.40;8.45;;;;;;;7.93;100.00;95469.38;5028298;28;20037;-78
2023/03/19 07:35:04;;;;;;;18.20;8.82;;;;;;;7.98;100.00;95464.16;5025030;28;20041;-78
2023/03/19 07:37:31;;;;;;;17.10;8.63;;;;;;;8.00;100.00;95472.56;5029451;28;20048;-77
2023/03/19 07:39:56;;;;;;;15.93;7.93;;;;;;;8.17;100.00;95482.09;5025786;28;20030;-75
2023/03/19 07:42:22;;;;;;;16.17;7.93;;;;;;;8.10;100.00;95483.13;5023278;28;20042;-76
2023/03/19 07:44:48;;;;;;;15.85;7.65;;;;;;;8.10;100.00;95480.50;5024420;28;20118;-75
2023/03/19 07:47:14;;;;;;;20.20;8.00;;;;;;;8.18;100.00;95481.84;5026815;28;20041;-75
2023/03/19 07:49:39;;;;;;;14.88;7.57;;;;;;;8.19;100.00;95490.47;5020675;28;20037;-75
2023/03/19 07:52:06;;;;;;;17.05;7.50;;;;;;;8.25;100.00;95489.47;5025021;28;20095;-75
2023/03/19 07:54:32;;;;;;;15.88;7.43;;;;;;;8.30;100.00;95492.91;5027513;28;20049;-74
2023/03/19 07:56:57;;;;;;;15.07;6.88;;;;;;;8.32;100.00;95495.28;5026979;28;20045;-77
2023/03/19 07:59:23;;;;;;;13.93;6.72;;;;;;;8.42;100.00;95490.09;5043246;28;20056;-77
2023/03/19 08:01:49;;;;;;;13.52;7.10;;;;;;;8.40;100.00;95481.66;5028477;28;20103;-76
2023/03/19 08:04:15;;;;;;;15.27;7.00;;;;;;;8.47;100.00;95486.72;5027902;28;20390;-76
2023/03/19 08:06:41;;;;;;;13.50;6.90;;;;;;;8.46;100.00;95487.75;5028669;28;20099;-77
2023/03/19 08:09:06;;;;;;;10.95;5.93;;;;;;;8.46;100.00;95485.94;5023144;28;20038;-76
2023/03/19 08:11:32;;;;;;;22.10;13.52;;;;;;;8.48;100.00;95494.34;5022295;28;20069;-77
2023/03/19 08:13:58;;;;;;;17.45;6.78;;;;;;;8.54;100.00;95486.50;5024487;28;20056;-76
2023/03/19 08:16:23;;;;;;;13.63;7.68;;;;;;;8.51;100.00;95492.25;5028377;28;20069;-77
2023/03/19 08:18:50;;;;;;;13.30;6.68;;;;;;;8.58;100.00;95482.31;5019233;28;20042;-76
2023/03/19 08:21:16;;;;;;;12.95;6.43;;;;;;;8.58;100.00;95487.56;5021061;28;20057;-76
2023/03/19 08:23:42;;;;;;;14.10;6.55;;;;;;;8.62;100.00;95488.59;5020776;28;20123;-76
2023/03/19 08:26:08;;;;;;;11.07;6.25;;;;;;;8.62;100.00;95483.34;5024181;28;20057;-76
2023/03/19 08:28:34;;;;;;;12.98;6.20;;;;;;;8.65;100.00;95477.63;5022376;28;20132;-76
2023/03/19 08:31:11;;;;;;;15.95;6.55;;;;;;;8.66;100.00;95489.66;5021811;28;20045;-76
2023/03/19 08:33:37;;;;;;;;;;;;;;;8.70;100.00;95485.50;5024569;28;20120;-76
2023/03/19 08:36:07;;;;;;;11.82;6.88;;;;;;;8.78;100.00;95492.88;5028685;28;19928;-75
2023/03/19 08:38:32;;;;;;;14.05;7.32;;;;;;;8.75;100.00;95493.41;5026642;28;20046;-75
2023/03/19 08:41:01;;;;;;;13.98;6.53;;;;;;;8.74;100.00;95491.81;5030946;28;20091;-75
2023/03/19 08:43:27;;;;;;;20.13;11.13;;;;;;;8.78;100.00;95498.13;5029550;28;20036;-76
2023/03/19 08:45:53;;;;;;;14.05;6.85;;;;;;;8.76;100.00;95502.81;5032496;28;20033;-75
2023/03/19 08:48:19;;;;;;;13.25;6.20;;;;;;;8.82;100.00;95511.50;5045951;28;20057;-75
2023/03/19 08:50:45;;;;;;;12.10;6.57;;;;;;;8.81;100.00;95515.97;5052885;28;20025;-82
2023/03/19 08:53:10;;;;;;;11.00;6.35;;;;;;;8.76;100.00;95513.31;5058630;28;20239;-74
2023/03/19 08:55:36;;;;;;;14.13;6.97;;;;;;;8.91;100.00;95514.44;5059773;28;20029;-74
2023/03/19 08:58:02;;;;;;;10.68;6.00;;;;;;;8.92;100.00;95513.38;5057667;28;20046;-77
2023/03/19 09:00:27;;;;;;;11.77;6.47;;;;;;;9.01;100.00;95511.84;5058988;28;20085;-74
2023/03/19 09:02:53;;;;;;;12.32;5.78;;;;;;;9.08;100.00;95507.13;5051284;28;20089;-75
2023/03/19 09:05:23;;;;;;;11.07;5.95;;;;;;;9.21;100.00;95505.03;5050746;28;20030;-74
2023/03/19 09:07:49;;;;;;;11.68;5.80;;;;;;;9.28;100.00;95510.81;5054089;28;20036;-75
2023/03/19 09:10:15;;;;;;;17.15;6.82;;;;;;;9.35;100.00;95521.84;5047185;28;20053;-75
2023/03/19 09:12:41;;;;;;;9.93;5.88;;;;;;;9.37;100.00;95514.53;5028044;28;20038;-75
2023/03/19 09:15:07;;;;;;;11.32;5.55;;;;;;;9.45;100.00;95521.91;5025520;28;20049;-76
2023/03/19 09:17:32;;;;;;;13.68;6.18;;;;;;;9.51;100.00;95515.59;5025312;28;20472;-82
2023/03/19 09:19:58;;;;;;;16.50;6.18;;;;;;;9.72;100.00;95531.34;5026733;28;20048;-75
2023/03/19 09:22:24;;;;;;;12.82;6.13;;;;;;;9.63;100.00;95528.47;5028959;28;20049;-75
2023/03/19 09:24:49;;;;;;;16.25;6.65;;;;;;;9.82;100.00;95526.09;5027447;28;20033;-76
2023/03/19 09:27:15;;;;;;;13.57;6.18;;;;;;;10.15;100.00;95529.22;5032583;28;20520;-76
2023/03/19 09:29:41;;;;;;;10.70;5.82;;;;;;;10.34;100.00;95531.31;5030735;28;20045;-77
2023/03/19 09:32:07;;;;;;;11.02;5.43;;;;;;;10.20;100.00;95531.84;5028534;28;20064;-76
2023/03/19 09:34:32;;;;;;;14.15;6.15;;;;;;;10.04;100.00;95532.91;5029858;28;20042;-77
2023/03/19 09:36:58;;;;;;;16.35;5.53;;;;;;;9.96;100.00;95530.84;5030638;28;20041;-76
2023/03/19 09:39:23;;;;;;;11.65;5.80;;;;;;;10.13;100.00;95544.47;5031363;28;20412;-74
2023/03/19 09:42:08;;;;;;;12.05;5.68;;;;;;;10.06;100.00;95538.69;5026396;28;20458;-76
2023/03/19 09:44:37;;;;;;;9.70;5.45;;;;;;;10.12;100.00;95545.53;5025187;28;20050;-75
2023/03/19 09:47:27;;;;;;;16.75;6.13;;;;;;;9.96;100.00;95543.97;5030566;28;20053;-76
2023/03/19 09:49:57;;;;;;;10.45;5.72;;;;;;;10.00;100.00;95552.91;5030841;28;20037;-76
2023/03/19 09:52:48;;;;;;;14.27;5.57;;;;;;;10.14;100.00;95558.41;5019087;28;20041;-76
2023/03/19 09:55:23;;;;;;;13.27;6.22;;;;;;;9.91;100.00;95554.47;5016944;28;20583;-75
2023/03/19 09:57:49;;;;;;;10.05;5.50;;;;;;;9.84;100.00;95550.28;5029731;28;20061;-76
2023/03/19 10:00:26;;;;;;;13.60;5.78;;;;;;;9.93;100.00;95555.00;5022138;28;20046;-77
2023/03/19 10:03:28;;;;;;;11.55;6.22;;;;;;;9.91;100.00;95544.75;5026326;28;20603;-76
2023/03/19 10:06:16;;;;;;;9.60;4.90;;;;;;;10.05;100.00;95555.53;5030140;28;20103;-76
2023/03/19 10:09:15;;;;;;;11.25;5.47;;;;;;;10.02;100.00;95550.81;5029712;28;20045;-76
2023/03/19 10:12:08;;;;;;;10.15;4.60;;;;;;;10.15;100.00;95550.25;5023362;28;20041;-76
2023/03/19 10:14:49;;;;;;;8.77;4.88;;;;;;;10.20;100.00;95539.75;5025498;28;20041;-76
2023/03/19 10:17:23;;;;;;;10.65;4.97;;;;;;;10.18;100.00;95544.47;5031644;28;20041;-76
2023/03/19 10:19:56;;;;;;;9.13;5.05;;;;;;;10.61;100.00;95540.72;5025708;28;20060;-75
2023/03/19 10:22:28;;;;;;;12.07;4.65;;;;;;;10.54;100.00;95533.91;5019916;28;20041;-75
2023/03/19 10:24:56;;;;;;;9.50;4.70;;;;;;;10.99;100.00;95535.81;5027578;28;20034;-77
2023/03/19 10:27:27;;;;;;;11.57;5.00;;;;;;;10.82;100.00;95526.44;5030971;28;20052;-75
2023/03/19 10:29:53;;;;;;;8.70;4.63;;;;;;;11.00;100.00;95532.13;5022624;28;20054;-76
2023/03/19 10:32:27;;;;;;;9.30;4.57;;;;;;;11.32;100.00;95533.53;5023791;28;20033;-77
2023/03/19 10:34:53;;;;;;;9.27;4.50;;;;;;;10.97;100.00;95532.69;5025410;28;20069;-75
2023/03/19 10:37:25;;;;;;;15.45;5.38;;;;;;;10.99;100.00;95535.81;5030338;28;20629;-75
2023/03/19 10:39:54;;;;;;;16.10;5.00;;;;;;;10.85;100.00;95541.69;5026394;28;20042;-77
2023/03/19 10:42:55;;;;;;;9.85;4.40;;;;;;;11.11;100.00;95533.66;5021581;28;20050;-75
2023/03/19 10:45:30;;;;;;;7.80;4.38;;;;;;;11.11;100.00;95544.19;5030051;28;20044;-76
2023/03/19 10:47:58;;;;;;;7.30;4.43;;;;;;;10.77;100.00;95544.88;5025589;28;20045;-76
2023/03/19 10:50:50;;;;;;;11.77;5.10;;;;;;;10.66;100.00;95538.88;5025607;28;20444;-76
2023/03/19 10:53:15;;;;;;;11.98;4.55;;;;;;;10.93;100.00;95537.69;5026988;28;20040;-75
2023/03/19 10:55:49;;;;;;;11.45;4.90;;;;;;;11.22;100.00;95529.13;5028364;28;20037;-77
2023/03/19 10:58:21;;;;;;;8.68;4.18;;;;;;;11.24;100.00;95530.41;5027548;28;20500;-76
2023/03/19 11:00:55;;;;;;;10.77;4.80;;;;;;;11.36;100.00;95524.03;5020175;28;20144;-76
2023/03/19 11:03:49;;;;;;;12.15;4.63;;;;;;;11.48;100.00;95527.13;5027616;28;20037;-75
2023/03/19 11:06:19;;;;;;;9.85;3.70;;;;;;;11.70;100.00;95518.00;5028135;28;20049;-76
2023/03/19 11:08:54;;;;;;;9.10;4.53;;;;;;;11.55;100.00;95513.63;5031534;28;20046;-76
2023/03/19 11:11:33;;;;;;;11.75;4.68;;;;;;;11.23;100.00;95513.06;5029354;28;20084;-76
2023/03/19 11:14:15;;;;;;;9.23;4.60;;;;;;;11.66;100.00;95519.63;5026306;28;20481;-77
2023/03/19 11:17:01;;;;;;;9.38;4.05;;;;;;;11.47;100.00;95499.19;5031295;28;20072;-78
2023/03/19 11:19:34;;;;;;;8.73;4.18;;;;;;;11.60;100.00;95514.38;5027056;28;20091;-78
2023/03/19 11:22:08;;;;;;;9.52;4.35;;;;;;;11.41;100.00;95519.53;5022726;28;20117;-77
2023/03/19 11:24:38;;;;;;;;;;;;;;;11.50;100.00;95514.44;5022587;28;20037;-77
2023/03/19 11:27:04;;;;;;;10.25;4.22;;;;;;;11.10;100.00;95516.28;5028000;28;19924;-78
2023/03/19 11:29:30;;;;;;;6.70;3.83;;;;;;;11.40;100.00;95510.03;5026577;28;20038;-77